createdAt,value
2019-05-15T00:00:48.021Z,101961.25
2019-05-15T00:03:19.781Z,101942.27
2019-05-15T00:05:51.710Z,101943.46
2019-05-15T00:08:22.776Z,101942.17
2019-05-15T00:10:53.856Z,101945.80
2019-05-15T00:13:25.430Z,101942.06
2019-05-15T00:15:59.018Z,101938.57
2019-05-15T00:18:30.387Z,101932.98
2019-05-15T00:21:01.587Z,101934.11
2019-05-15T00:23:33.355Z,101926.98
2019-05-15T00:26:05.643Z,101926.98
2019-05-15T00:28:38.818Z,101921.16
2019-05-15T00:31:09.833Z,101921.09
2019-05-15T00:33:41.237Z,101918.17
2019-05-15T00:36:12.349Z,101917.44
2019-05-15T00:38:44.063Z,101910.95
2019-05-15T00:41:18.342Z,101909.31
2019-05-15T00:43:49.541Z,101911.09
2019-05-15T00:46:20.758Z,101910.55
2019-05-15T00:48:51.922Z,101910.16
2019-05-15T00:51:24.094Z,101903.56
2019-05-15T00:53:55.494Z,101905.66
2019-05-15T00:56:28.535Z,101901.29
2019-05-15T00:58:59.617Z,101900.39
2019-05-15T01:01:31.829Z,101901.84
2019-05-15T01:04:03.938Z,101896.12
2019-05-15T01:06:35.401Z,101897.18
2019-05-15T01:09:08.337Z,101891.99
2019-05-15T01:11:40.779Z,101893.12
2019-05-15T01:14:12.425Z,101890.41
2019-05-15T01:16:43.460Z,101887.91
2019-05-15T01:19:15.111Z,101884.42
2019-05-15T01:21:48.104Z,101884.81
2019-05-15T01:24:19.448Z,101882.02
2019-05-15T01:26:50.572Z,101881.77
2019-05-15T01:29:36.482Z,101878.04
2019-05-15T01:31:59.122Z,101877.48
2019-05-15T01:34:29.895Z,101878.17
2019-05-15T01:37:01.275Z,101873.63
2019-05-15T01:39:32.451Z,101882.48
2019-05-15T01:42:04.368Z,101875.34
2019-05-15T01:44:36.308Z,101875.69
2019-05-15T01:47:08.506Z,101875.69
2019-05-15T01:49:40.147Z,101867.08
2019-05-15T01:52:12.068Z,101864.78
2019-05-15T01:54:43.230Z,101862.20
2019-05-15T01:57:14.657Z,101863.89
2019-05-15T01:59:54.788Z,101850.93
2019-05-15T02:02:20.397Z,101852.47
2019-05-15T02:04:51.817Z,101848.89
2019-05-15T02:07:23.601Z,101852.92
2019-05-15T02:09:54.788Z,101850.76
2019-05-15T02:12:28.593Z,101856.34
2019-05-15T02:14:59.186Z,101849.60
2019-05-15T02:17:32.000Z,101846.66
2019-05-15T02:20:04.053Z,101844.09
2019-05-15T02:22:35.217Z,101842.03
2019-05-15T02:25:08.613Z,101837.30
2019-05-15T02:27:40.183Z,101837.30
2019-05-15T02:30:22.406Z,101835.75
2019-05-15T02:32:45.428Z,101835.61
2019-05-15T02:35:18.578Z,101826.70
2019-05-15T02:37:50.078Z,101828.64
2019-05-15T02:40:22.035Z,101828.24
2019-05-15T02:42:53.752Z,101821.66
2019-05-15T02:45:25.274Z,101827.98
2019-05-15T02:47:59.468Z,101820.02
2019-05-15T02:50:29.417Z,101818.97
2019-05-15T02:53:00.947Z,101813.94
2019-05-15T02:55:32.022Z,101813.19
2019-05-15T02:58:03.058Z,101813.04
2019-05-15T03:00:43.906Z,101812.17
2019-05-15T03:03:09.473Z,101813.73
2019-05-15T03:05:41.242Z,101813.48
2019-05-15T03:08:12.808Z,101809.48
2019-05-15T03:10:44.023Z,101809.48
2019-05-15T03:13:18.780Z,101814.38
2019-05-15T03:15:49.281Z,101816.71
2019-05-15T03:18:21.061Z,101814.13
2019-05-15T03:20:52.436Z,101811.31
2019-05-15T03:23:23.871Z,101808.08
2019-05-15T03:25:55.469Z,101805.38
2019-05-15T03:28:29.499Z,101810.30
2019-05-15T03:31:26.245Z,101803.44
2019-05-15T03:33:45.477Z,101804.34
2019-05-15T03:36:14.279Z,101802.94
2019-05-15T03:38:49.601Z,101806.95
2019-05-15T03:41:19.711Z,101806.20
2019-05-15T03:43:51.028Z,101805.94
2019-05-15T03:46:22.079Z,101810.47
2019-05-15T03:48:53.780Z,101810.83
2019-05-15T03:51:24.998Z,101807.59
2019-05-15T03:54:00.068Z,101810.58
2019-05-15T03:56:29.749Z,101803.61
2019-05-15T03:59:01.460Z,101802.93
2019-05-15T04:01:38.797Z,101806.30
2019-05-15T04:04:09.438Z,101804.25
2019-05-15T04:06:39.667Z,101805.68
2019-05-15T04:09:12.222Z,101804.92
2019-05-15T04:11:43.808Z,101801.41
2019-05-15T04:14:15.264Z,101797.52
2019-05-15T04:16:49.535Z,101803.48
2019-05-15T04:19:20.113Z,101803.37
2019-05-15T04:21:51.596Z,101802.22
2019-05-15T04:24:25.818Z,101803.25
2019-05-15T04:27:00.024Z,101808.94
2019-05-15T04:29:32.284Z,101803.53
2019-05-15T04:32:05.961Z,101802.09
2019-05-15T04:34:39.475Z,101802.72
2019-05-15T04:37:09.796Z,101801.96
2019-05-15T04:39:41.063Z,101800.92
2019-05-15T04:42:12.902Z,101804.82
2019-05-15T04:44:44.662Z,101806.48
2019-05-15T04:47:19.006Z,101801.19
2019-05-15T04:49:50.364Z,101807.02
2019-05-15T04:52:22.796Z,101801.42
2019-05-15T04:54:54.256Z,101798.97
2019-05-15T04:57:29.044Z,101793.41
2019-05-15T04:59:59.590Z,101793.41
2019-05-15T05:02:32.400Z,101798.47
2019-05-15T05:05:09.681Z,101799.11
2019-05-15T05:07:39.547Z,101799.90
2019-05-15T05:10:11.465Z,101800.94
2019-05-15T05:12:43.112Z,101799.84
2019-05-15T05:15:14.600Z,101805.83
2019-05-15T05:17:45.972Z,101802.48
2019-05-15T05:20:17.929Z,101798.84
2019-05-15T05:22:49.507Z,101800.55
2019-05-15T05:25:21.336Z,101797.42
2019-05-15T05:27:52.817Z,101794.19
2019-05-15T05:30:24.075Z,101794.19
2019-05-15T05:32:57.920Z,101790.32
2019-05-15T05:35:28.860Z,101794.08
2019-05-15T05:38:00.628Z,101787.57
2019-05-15T05:40:32.431Z,101786.69
2019-05-15T05:43:03.841Z,101788.37
2019-05-15T05:45:35.247Z,101782.55
2019-05-15T05:48:08.824Z,101786.58
2019-05-15T05:50:44.314Z,101785.92
2019-05-15T05:53:15.125Z,101789.52
2019-05-15T05:55:46.099Z,101790.57
2019-05-15T05:58:19.653Z,101792.63
2019-05-15T06:00:51.098Z,101794.43
2019-05-15T06:03:22.343Z,101790.20
2019-05-15T06:05:54.096Z,101791.22
2019-05-15T06:08:25.029Z,101785.42
2019-05-15T06:10:58.327Z,101787.88
2019-05-15T06:13:29.250Z,101784.86
2019-05-15T06:16:00.577Z,101785.38
2019-05-15T06:18:32.416Z,101780.70
2019-05-15T06:21:03.258Z,101786.42
2019-05-15T06:23:36.217Z,101787.97
2019-05-15T06:26:09.608Z,101787.18
2019-05-15T06:28:41.017Z,101791.31
2019-05-15T06:31:12.299Z,101784.95
2019-05-15T06:33:44.710Z,101783.55
2019-05-15T06:36:17.989Z,101784.70
2019-05-15T06:38:49.623Z,101785.60
2019-05-15T06:41:21.497Z,101783.27
2019-05-15T06:43:53.158Z,101783.77
2019-05-15T06:46:24.956Z,101782.23
2019-05-15T06:48:58.123Z,101780.50
2019-05-15T06:51:30.292Z,101781.86
2019-05-15T06:54:03.951Z,101777.43
2019-05-15T06:56:35.371Z,101783.30
2019-05-15T06:59:08.667Z,101780.41
2019-05-15T07:01:40.703Z,101779.27
2019-05-15T07:04:12.424Z,101780.27
2019-05-15T07:06:44.068Z,101773.75
2019-05-15T07:09:17.958Z,101775.69
2019-05-15T07:11:49.202Z,101763.08
2019-05-15T07:14:20.624Z,101765.91
2019-05-15T07:16:51.649Z,101763.06
2019-05-15T07:19:22.607Z,101759.92
2019-05-15T07:21:54.330Z,101765.89
2019-05-15T07:24:25.269Z,101773.07
2019-05-15T07:26:58.945Z,101759.59
2019-05-15T07:29:29.474Z,101762.37
2019-05-15T07:32:00.269Z,101765.61
2019-05-15T07:34:33.787Z,101762.88
2019-05-15T07:37:04.607Z,101755.02
2019-05-15T07:39:35.362Z,101757.91
2019-05-15T07:42:08.445Z,101749.99
2019-05-15T07:44:39.101Z,101745.70
2019-05-15T07:47:09.793Z,101747.70
2019-05-15T07:49:41.507Z,101755.81
2019-05-15T07:52:12.348Z,101751.13
2019-05-15T07:54:43.181Z,101749.42
2019-05-15T07:57:13.837Z,101756.64
2019-05-15T07:59:44.535Z,101748.36
2019-05-15T08:02:15.365Z,101748.76
2019-05-15T08:04:48.270Z,101737.04
2019-05-15T08:07:19.333Z,101742.38
2019-05-15T08:09:50.876Z,101743.00
2019-05-15T08:12:21.600Z,101737.67
2019-05-15T08:14:52.571Z,101736.67
2019-05-15T08:17:28.973Z,101737.41
2019-05-15T08:20:02.591Z,101739.84
2019-05-15T08:22:34.928Z,101742.22
2019-05-15T08:25:11.296Z,101741.62
2019-05-15T08:27:40.221Z,101743.89
2019-05-15T08:30:14.050Z,101743.98
2019-05-15T08:32:45.301Z,101743.23
2019-05-15T08:35:19.179Z,101734.35
2019-05-15T08:37:50.937Z,101739.01
2019-05-15T08:40:21.927Z,101736.66
2019-05-15T08:42:58.687Z,101731.23
2019-05-15T08:45:25.298Z,101729.17
2019-05-15T08:47:58.509Z,101736.42
2019-05-15T08:50:28.864Z,101734.06
2019-05-15T08:52:59.877Z,101735.86
2019-05-15T08:55:30.978Z,101739.45
2019-05-15T08:58:07.855Z,101731.94
2019-05-15T09:00:34.585Z,101744.30
2019-05-15T09:03:08.567Z,101737.75
2019-05-15T09:05:39.417Z,101735.32
2019-05-15T09:08:10.757Z,101734.42
2019-05-15T09:10:41.773Z,101724.11
2019-05-15T09:13:12.701Z,101730.16
2019-05-15T09:15:44.121Z,101724.50
2019-05-15T09:18:17.289Z,101726.43
2019-05-15T09:20:49.499Z,101724.56
2019-05-15T09:23:20.670Z,101721.70
2019-05-15T09:25:51.618Z,101720.06
2019-05-15T09:28:22.877Z,101725.75
2019-05-15T09:30:53.529Z,101720.46
2019-05-15T09:33:24.453Z,101717.29
2019-05-15T09:35:54.984Z,101712.82
2019-05-15T09:38:25.885Z,101711.80
2019-05-15T09:40:58.540Z,101707.41
2019-05-15T09:43:29.481Z,101705.13
2019-05-15T09:46:00.190Z,101701.69
2019-05-15T09:48:31.499Z,101706.78
2019-05-15T09:51:02.177Z,101705.53
2019-05-15T09:53:34.653Z,101702.94
2019-05-15T09:56:08.079Z,101695.72
2019-05-15T09:58:38.998Z,101699.98
2019-05-15T10:01:09.779Z,101699.44
2019-05-15T10:03:44.324Z,101690.03
2019-05-15T10:06:13.798Z,101684.07
2019-05-15T10:08:48.724Z,101679.55
2019-05-15T10:11:19.737Z,101682.90
2019-05-15T10:13:50.840Z,101681.14
2019-05-15T10:16:21.737Z,101684.86
2019-05-15T10:18:52.527Z,101679.72
2019-05-15T10:21:28.705Z,101672.02
2019-05-15T10:23:58.828Z,101674.52
2019-05-15T10:26:28.651Z,101674.30
2019-05-15T10:28:59.578Z,101665.55
2019-05-15T10:31:30.458Z,101664.97
2019-05-15T10:34:02.524Z,101662.27
2019-05-15T10:36:33.498Z,101656.23
2019-05-15T10:39:08.381Z,101664.06
2019-05-15T10:41:39.401Z,101662.67
2019-05-15T10:44:10.419Z,101658.41
2019-05-15T10:46:41.270Z,101661.80
2019-05-15T10:49:12.480Z,101659.14
2019-05-15T10:51:43.240Z,101654.66
2019-05-15T10:54:14.403Z,101661.86
2019-05-15T10:56:45.994Z,101655.86
2019-05-15T10:59:18.299Z,101653.27
2019-05-15T11:01:49.780Z,101644.06
2019-05-15T11:04:22.033Z,101648.05
2019-05-15T11:06:53.066Z,101639.58
2019-05-15T11:09:24.075Z,101645.28
2019-05-15T11:11:54.985Z,101638.38
2019-05-15T11:14:28.474Z,101639.36
2019-05-15T11:16:59.006Z,101635.27
2019-05-15T11:19:36.100Z,101637.80
2019-05-15T11:22:03.433Z,101627.69
2019-05-15T11:24:34.332Z,101629.72
2019-05-15T11:27:05.558Z,101629.90
2019-05-15T11:29:38.189Z,101627.91
2019-05-15T11:32:08.968Z,101624.70
2019-05-15T11:34:39.999Z,101628.44
2019-05-15T11:37:11.319Z,101624.73
2019-05-15T11:39:46.136Z,101613.84
2019-05-15T11:42:14.827Z,101617.26
2019-05-15T11:44:48.311Z,101619.95
2019-05-15T11:47:18.557Z,101617.27
2019-05-15T11:49:49.503Z,101609.56
2019-05-15T11:52:20.564Z,101608.78
2019-05-15T11:54:51.696Z,101607.68
2019-05-15T11:57:37.338Z,101604.36
2019-05-15T11:59:59.439Z,101605.17
2019-05-15T12:02:30.845Z,101600.26
2019-05-15T12:05:02.202Z,101600.05
2019-05-15T12:07:33.277Z,101596.88
2019-05-15T12:10:09.851Z,101597.77
2019-05-15T12:12:38.912Z,101597.28
2019-05-15T12:15:10.658Z,101593.27
2019-05-15T12:17:42.085Z,101589.65
2019-05-15T12:20:13.480Z,101593.47
2019-05-15T12:22:44.341Z,101590.37
2019-05-15T12:25:18.000Z,101589.56
2019-05-15T12:27:49.239Z,101584.23
2019-05-15T12:30:21.888Z,101583.94
2019-05-15T12:32:52.737Z,101579.61
2019-05-15T12:35:30.489Z,101575.61
2019-05-15T12:38:04.385Z,101572.09
2019-05-15T13:01:16.518Z,101553.48
2019-05-15T13:03:35.585Z,101546.16
2019-05-15T13:06:08.081Z,101545.05
2019-05-15T13:08:48.899Z,101549.15
2019-05-15T13:11:23.798Z,101543.32
2019-05-15T13:13:54.618Z,101544.02
2019-05-15T13:16:28.011Z,101536.19
2019-05-15T13:18:58.789Z,101536.70
2019-05-15T13:21:29.845Z,101531.09
2019-05-15T13:24:01.868Z,101528.38
2019-05-15T13:26:32.778Z,101526.38
2019-05-15T13:29:03.551Z,101526.28
2019-05-15T13:31:34.440Z,101524.64
2019-05-15T13:34:07.962Z,101519.84
2019-05-15T13:36:39.261Z,101513.33
2019-05-15T13:39:10.377Z,101507.93
2019-05-15T13:41:41.466Z,101508.04
2019-05-15T13:44:12.525Z,101504.52
2019-05-15T13:46:43.190Z,101500.98
2019-05-15T13:49:14.059Z,101499.86
2019-05-15T13:51:44.329Z,101495.92
2019-05-15T13:54:14.440Z,101491.94
2019-05-15T13:56:44.258Z,101490.19
2019-05-15T13:59:14.321Z,101494.58
2019-05-15T14:01:44.292Z,101490.44
2019-05-15T14:04:14.256Z,101478.42
2019-05-15T14:06:44.336Z,101481.84
2019-05-15T14:09:14.795Z,101480.55
2019-05-15T14:11:44.979Z,101490.38
2019-05-15T14:14:14.830Z,101483.86
2019-05-15T14:16:45.152Z,101478.39
2019-05-15T14:19:15.400Z,101473.13
2019-05-15T14:21:45.448Z,101476.04
2019-05-15T14:24:15.455Z,101480.72
2019-05-15T14:26:45.216Z,101468.52
2019-05-15T14:29:15.129Z,101471.19
2019-05-15T14:31:48.351Z,101470.73
2019-05-15T14:34:18.724Z,101458.30
2019-05-15T14:36:48.703Z,101463.87
2019-05-15T14:39:21.007Z,101454.74
2019-05-15T14:41:50.814Z,101449.12
2019-05-15T14:44:21.830Z,101446.45
2019-05-15T14:46:52.086Z,101444.02
2019-05-15T14:49:33.295Z,101447.12
2019-05-15T14:52:08.890Z,101445.34
2019-05-15T14:54:35.142Z,101445.28
2019-05-15T14:57:05.100Z,101436.09
2019-05-15T14:59:34.803Z,101440.17
2019-05-15T15:02:04.930Z,101437.46
2019-05-15T15:04:34.687Z,101435.44
2019-05-15T15:07:05.019Z,101430.57
2019-05-15T15:09:34.845Z,101431.64
2019-05-15T15:12:04.977Z,101426.66
2019-05-15T15:14:34.859Z,101424.09
2019-05-15T15:17:04.981Z,101427.48
2019-05-15T15:19:35.100Z,101422.13
2019-05-15T15:22:05.191Z,101423.29
2019-05-15T15:24:35.109Z,101416.81
2019-05-15T15:27:05.131Z,101416.81
2019-05-15T15:29:35.273Z,101420.58
2019-05-15T15:32:05.492Z,101423.92
2019-05-15T15:34:35.288Z,101416.81
2019-05-15T15:37:08.231Z,101415.77
2019-05-15T15:39:38.700Z,101405.22
2019-05-15T15:42:08.943Z,101405.73
2019-05-15T15:44:39.580Z,101405.64
2019-05-15T15:47:09.780Z,101396.88
2019-05-15T15:49:40.100Z,101394.53
2019-05-15T15:52:10.363Z,101387.17
2019-05-15T15:54:40.793Z,101389.34
2019-05-15T15:57:11.592Z,101390.33
2019-05-15T15:59:42.296Z,101387.14
2019-05-15T16:02:12.546Z,101382.55
2019-05-15T16:04:42.784Z,101375.06
2019-05-15T16:07:17.807Z,101374.23
2019-05-15T16:09:48.681Z,101371.68
2019-05-15T16:12:19.002Z,101373.91
2019-05-15T16:14:49.427Z,101371.14
2019-05-15T16:17:19.661Z,101372.09
2019-05-15T16:19:50.279Z,101369.73
2019-05-15T16:22:20.283Z,101359.34
2019-05-15T16:24:51.812Z,101359.08
2019-05-15T16:27:22.188Z,101358.03
2019-05-15T16:29:53.651Z,101355.58
2019-05-15T16:32:24.707Z,101355.98
2019-05-15T16:34:55.778Z,101361.69
2019-05-15T16:37:26.436Z,101361.28
2019-05-15T16:39:57.853Z,101360.74
2019-05-15T16:42:28.645Z,101356.56
2019-05-15T16:44:59.457Z,101354.90
2019-05-15T16:47:30.193Z,101355.47
2019-05-15T16:50:01.233Z,101355.15
2019-05-15T16:52:31.647Z,101358.09
2019-05-15T16:55:02.488Z,101361.59
2019-05-15T16:57:32.743Z,101357.67
2019-05-15T17:00:03.588Z,101360.70
2019-05-15T17:02:35.183Z,101357.93
2019-05-15T17:05:06.144Z,101365.14
2019-05-15T17:07:38.833Z,101359.80
2019-05-15T17:10:08.904Z,101362.73
2019-05-15T17:12:40.287Z,101367.34
2019-05-15T17:15:11.212Z,101371.29
2019-05-15T17:17:41.467Z,101372.25
2019-05-15T17:20:19.135Z,101370.70
2019-05-15T17:23:19.950Z,101370.69
2019-05-15T17:25:58.919Z,101375.81
2019-05-15T17:28:30.568Z,101377.84
2019-05-15T17:31:01.042Z,101370.70
2019-05-15T17:33:30.966Z,101374.31
2019-05-15T17:36:01.224Z,101380.66
2019-05-15T17:38:31.960Z,101381.20
2019-05-15T17:41:02.626Z,101374.68
2019-05-15T17:43:32.913Z,101377.10
2019-05-15T17:46:02.882Z,101377.34
2019-05-15T17:48:32.816Z,101375.69
2019-05-15T17:51:02.860Z,101381.65
2019-05-15T17:53:32.674Z,101375.08
2019-05-15T17:56:02.653Z,101377.48
2019-05-15T17:58:32.818Z,101375.70
2019-05-15T18:01:02.855Z,101371.49
2019-05-15T18:03:32.752Z,101373.92
2019-05-15T18:06:02.670Z,101372.22
2019-05-15T18:08:32.474Z,101373.60
2019-05-15T18:11:02.414Z,101379.26
2019-05-15T18:13:32.808Z,101377.99
2019-05-15T18:16:04.544Z,101380.78
2019-05-15T18:18:34.821Z,101371.97
2019-05-15T18:21:04.809Z,101375.23
2019-05-15T18:23:35.849Z,101378.72
2019-05-15T18:26:05.570Z,101379.94
2019-05-15T18:28:38.578Z,101378.17
2019-05-15T18:31:09.167Z,101385.70
2019-05-15T18:33:53.097Z,101373.23
2019-05-15T18:36:13.953Z,101376.18
2019-05-15T18:38:44.983Z,101376.77
2019-05-15T18:41:17.990Z,101371.09
2019-05-15T18:43:48.739Z,101368.09
2019-05-15T18:46:19.515Z,101375.09
2019-05-15T18:48:50.256Z,101372.89
2019-05-15T18:51:21.011Z,101370.89
2019-05-15T18:53:51.862Z,101372.80
2019-05-15T18:56:22.772Z,101372.61
2019-05-15T18:58:54.056Z,101369.53
2019-05-15T19:01:25.099Z,101379.72
2019-05-15T19:03:58.167Z,101367.31
2019-05-15T19:06:29.359Z,101369.33
2019-05-15T19:09:00.832Z,101357.11
2019-05-15T19:11:33.489Z,101358.74
2019-05-15T19:14:04.682Z,101358.06
2019-05-15T19:16:38.710Z,101345.75
2019-05-15T19:19:09.675Z,101347.94
2019-05-15T19:21:40.937Z,101346.84
2019-05-15T19:24:11.791Z,101340.02
2019-05-15T19:26:43.379Z,101345.44
2019-05-15T19:29:17.821Z,101340.16
2019-05-15T19:31:48.528Z,101335.56
2019-05-15T19:34:19.630Z,101333.45
2019-05-15T19:36:50.464Z,101337.63
2019-05-15T19:39:23.282Z,101327.84
2019-05-15T19:41:58.278Z,101324.55
2019-05-15T19:44:29.693Z,101319.65
2019-05-15T19:47:02.958Z,101317.66
2019-05-15T19:49:33.919Z,101310.36
2019-05-15T19:52:05.039Z,101314.67
2019-05-15T19:54:38.222Z,101314.77
2019-05-15T19:57:12.815Z,101308.28
2019-05-15T19:59:44.725Z,101314.19
2019-05-15T20:02:28.566Z,101304.06
2019-05-15T20:05:18.422Z,101298.09
2019-05-15T20:08:03.226Z,101294.27
2019-05-15T20:10:50.070Z,101290.78
2019-05-15T20:13:49.669Z,101287.16
2019-05-15T20:16:28.593Z,101290.78
2019-05-15T20:19:02.791Z,101275.81
2019-05-15T20:21:34.454Z,101276.30
2019-05-15T20:24:08.498Z,101275.50
2019-05-15T20:26:40.061Z,101275.50
2019-05-15T20:29:14.189Z,101272.55
2019-05-15T20:31:48.205Z,101270.73
2019-05-15T20:34:18.238Z,101260.95
2019-05-15T20:36:49.437Z,101256.55
2019-05-15T20:39:21.205Z,101252.33
2019-05-15T20:42:08.864Z,101252.33
2019-05-15T20:45:08.378Z,101248.14
2019-05-15T20:47:43.677Z,101248.02
2019-05-15T20:50:15.231Z,101242.25
2019-05-15T20:52:48.833Z,101237.34
2019-05-15T20:55:19.098Z,101229.35
2019-05-15T20:58:01.424Z,101225.94
2019-05-15T21:00:40.795Z,101224.08
2019-05-15T21:03:23.190Z,101214.87
2019-05-15T21:05:57.737Z,101213.88
2019-05-15T21:08:31.795Z,101209.05
2019-05-15T21:11:04.073Z,101206.84
2019-05-15T21:13:35.396Z,101202.38
2019-05-15T21:16:08.342Z,101196.37
2019-05-15T21:18:41.548Z,101194.60
2019-05-15T21:21:12.834Z,101195.09
2019-05-15T21:23:44.138Z,101189.98
2019-05-15T21:26:18.605Z,101193.39
2019-05-15T21:28:49.619Z,101180.69
2019-05-15T21:31:22.106Z,101177.31
2019-05-15T21:33:53.432Z,101175.30
2019-05-15T21:36:24.863Z,101177.12
2019-05-15T21:38:58.516Z,101170.68
2019-05-15T21:41:29.299Z,101171.01
2019-05-15T21:44:01.061Z,101169.30
2019-05-15T21:46:32.702Z,101170.06
2019-05-15T21:49:04.031Z,101156.39
2019-05-15T21:51:35.357Z,101158.88
2019-05-15T21:54:06.705Z,101144.86
2019-05-15T21:56:38.766Z,101146.59
2019-05-15T21:59:09.848Z,101145.52
2019-05-15T22:01:42.181Z,101148.59
2019-05-15T22:04:13.839Z,101145.62
2019-05-15T22:06:45.632Z,101145.52
2019-05-15T22:09:18.705Z,101139.83
2019-05-15T22:11:50.217Z,101145.78
2019-05-15T22:14:21.605Z,101138.58
2019-05-15T22:16:53.145Z,101127.97
2019-05-15T22:19:25.054Z,101135.17
2019-05-15T22:21:58.205Z,101127.38
2019-05-15T22:24:29.182Z,101126.19
2019-05-15T22:27:00.092Z,101121.06
2019-05-15T22:29:31.544Z,101115.12
2019-05-15T22:32:03.100Z,101120.17
2019-05-15T22:34:34.437Z,101110.81
2019-05-15T22:37:08.950Z,101110.22
2019-05-15T22:39:39.702Z,101107.89
2019-05-15T22:42:11.622Z,101104.95
2019-05-15T22:44:42.807Z,101093.92
2019-05-15T22:47:13.766Z,101091.33
2019-05-15T22:49:45.063Z,101090.33
2019-05-15T22:52:18.454Z,101083.12
2019-05-15T22:54:49.150Z,101085.80
2019-05-15T22:57:20.266Z,101079.70
2019-05-15T22:59:51.322Z,101083.12
2019-05-15T23:02:22.836Z,101071.84
2019-05-15T23:04:54.419Z,101075.03
2019-05-15T23:07:28.008Z,101068.13
2019-05-15T23:09:59.192Z,101067.98
2019-05-15T23:12:30.619Z,101064.59
2019-05-15T23:15:02.300Z,101057.47
2019-05-15T23:17:33.581Z,101044.96
2019-05-15T23:20:08.667Z,101040.77
2019-05-15T23:22:40.307Z,101042.44
2019-05-15T23:25:12.035Z,101034.86
2019-05-15T23:27:43.768Z,101035.23
2019-05-15T23:30:14.933Z,101031.08
2019-05-15T23:32:48.637Z,101023.35
2019-05-15T23:35:19.258Z,101021.05
2019-05-15T23:37:50.300Z,101023.87
2019-05-15T23:40:21.582Z,101027.54
2019-05-15T23:42:53.181Z,101025.12
2019-05-15T23:45:24.581Z,101021.78
2019-05-15T23:47:57.991Z,101018.80
2019-05-15T23:50:29.047Z,101011.84
2019-05-15T23:53:00.439Z,101005.76
2019-05-15T23:55:32.013Z,101006.31
2019-05-15T23:58:03.871Z,101002.41
